createdAt,value
2018-09-18T00:00:25.022Z,101145.14
2018-09-18T00:02:54.120Z,101139.88
2018-09-18T00:05:23.180Z,101135.83
2018-09-18T00:07:52.290Z,101129.47
2018-09-18T00:10:21.410Z,101131.30
2018-09-18T00:12:52.164Z,101123.70
2018-09-18T00:15:21.272Z,101123.70
2018-09-18T00:17:50.354Z,101115.99
2018-09-18T00:20:19.390Z,101119.55
2018-09-18T00:22:48.506Z,101117.74
2018-09-18T00:25:17.589Z,101118.69
2018-09-18T00:27:46.710Z,101107.91
2018-09-18T00:30:15.816Z,101107.13
2018-09-18T00:32:45.056Z,101109.74
2018-09-18T00:35:14.191Z,101103.98
2018-09-18T00:37:43.463Z,101101.66
2018-09-18T00:40:12.571Z,101101.73
2018-09-18T00:42:41.706Z,101095.00
2018-09-18T00:45:10.896Z,101101.28
2018-09-18T00:47:39.998Z,101096.34
2018-09-18T00:50:09.070Z,101093.20
2018-09-18T00:52:38.114Z,101092.31
2018-09-18T00:55:07.174Z,101084.71
2018-09-18T00:57:36.270Z,101081.16
2018-09-18T01:00:05.544Z,101073.94
2018-09-18T01:02:34.630Z,101067.69
2018-09-18T01:05:03.748Z,101067.20
2018-09-18T01:07:32.914Z,101062.67
2018-09-18T01:10:02.013Z,101061.81
2018-09-18T01:12:31.146Z,101061.92
2018-09-18T01:15:00.260Z,101054.70
2018-09-18T01:17:29.315Z,101054.70
2018-09-18T01:19:58.438Z,101053.35
2018-09-18T01:22:27.650Z,101046.98
2018-09-18T01:24:56.708Z,101047.48
2018-09-18T01:27:25.840Z,101043.92
2018-09-18T01:29:54.895Z,101041.11
2018-09-18T01:32:24.014Z,101034.00
2018-09-18T01:34:53.078Z,101043.06
2018-09-18T01:37:22.202Z,101037.67
2018-09-18T01:39:51.307Z,101036.33
2018-09-18T01:42:20.445Z,101041.23
2018-09-18T01:44:50.299Z,101039.47
2018-09-18T01:47:19.386Z,101033.23
2018-09-18T01:49:48.487Z,101025.14
2018-09-18T01:52:17.566Z,101035.43
2018-09-18T01:54:46.630Z,101029.67
2018-09-18T01:57:15.917Z,101028.33
2018-09-18T01:59:45.327Z,101024.28
2018-09-18T02:02:14.495Z,101022.08
2018-09-18T02:04:43.633Z,101017.55
2018-09-18T02:07:12.899Z,101017.06
2018-09-18T02:09:41.975Z,101009.84
2018-09-18T02:12:11.106Z,101004.08
2018-09-18T02:14:40.191Z,101010.81
2018-09-18T02:17:09.239Z,101003.22
2018-09-18T02:19:38.299Z,101000.03
2018-09-18T02:22:07.359Z,100991.58
2018-09-18T02:24:36.826Z,100990.60
2018-09-18T02:27:06.139Z,100991.09
2018-09-18T02:29:35.260Z,100988.39
2018-09-18T02:32:04.323Z,100974.52
2018-09-18T02:34:33.443Z,100980.31
2018-09-18T02:37:02.555Z,100978.97
2018-09-18T02:39:31.671Z,100975.41
2018-09-18T02:42:00.771Z,100970.88
2018-09-18T02:44:29.830Z,100973.17
2018-09-18T02:46:58.957Z,100972.23
2018-09-18T02:49:28.157Z,100969.13
2018-09-18T02:51:57.174Z,100970.97
2018-09-18T02:54:26.223Z,100966.55
2018-09-18T02:56:55.299Z,100959.33
2018-09-18T02:59:25.218Z,100962.52
2018-09-18T03:01:54.349Z,100958.06
2018-09-18T03:04:23.615Z,100947.41
2018-09-18T03:06:52.739Z,100953.66
2018-09-18T03:09:21.836Z,100962.11
2018-09-18T03:11:50.903Z,100958.55
2018-09-18T03:14:19.995Z,100956.44
2018-09-18T03:16:49.133Z,100953.25
2018-09-18T03:19:18.197Z,100951.45
2018-09-18T03:21:47.399Z,100946.52
2018-09-18T03:24:16.531Z,100938.06
2018-09-18T03:26:45.591Z,100944.31
2018-09-18T03:29:14.708Z,100942.59
2018-09-18T03:31:43.812Z,100938.55
2018-09-18T03:34:12.868Z,100942.10
2018-09-18T03:36:41.940Z,100941.73
2018-09-18T03:39:10.999Z,100932.30
2018-09-18T03:41:40.051Z,100933.65
2018-09-18T03:44:09.120Z,100931.33
2018-09-18T03:46:38.203Z,100926.43
2018-09-18T03:49:07.347Z,100924.67
2018-09-18T03:51:36.459Z,100922.88
2018-09-18T03:54:05.572Z,100923.33
2018-09-18T03:56:34.652Z,100918.83
2018-09-18T03:59:03.867Z,100919.29
2018-09-18T04:01:32.935Z,100925.08
2018-09-18T04:04:02.061Z,100921.04
2018-09-18T04:06:31.135Z,100919.69
2018-09-18T04:09:00.236Z,100913.90
2018-09-18T04:11:29.389Z,100921.13
2018-09-18T04:13:58.321Z,100912.19
2018-09-18T04:16:27.318Z,100915.25
2018-09-18T04:18:56.409Z,100904.96
2018-09-18T04:21:42.593Z,100896.51
2018-09-18T04:24:11.705Z,100896.51
2018-09-18T04:26:41.575Z,100894.30
2018-09-18T04:29:10.864Z,100897.86
2018-09-18T04:31:41.096Z,100894.67
2018-09-18T04:34:10.256Z,100895.16
2018-09-18T04:36:39.301Z,100886.67
2018-09-18T04:39:09.881Z,100892.95
2018-09-18T04:41:38.936Z,100889.86
2018-09-18T04:44:08.612Z,100887.57
2018-09-18T04:46:37.603Z,100888.43
2018-09-18T04:49:06.688Z,100886.67
2018-09-18T04:51:35.660Z,100877.66
2018-09-18T04:54:04.724Z,100880.34
2018-09-18T04:56:33.860Z,100883.90
2018-09-18T04:59:02.932Z,100877.16
2018-09-18T05:01:32.014Z,100879.38
2018-09-18T05:04:01.066Z,100880.34
2018-09-18T05:06:30.116Z,100880.72
2018-09-18T05:08:59.442Z,100877.66
2018-09-18T05:11:28.502Z,100880.43
2018-09-18T05:13:57.779Z,100878.59
2018-09-18T05:16:27.009Z,100878.59
2018-09-18T05:18:56.025Z,100870.52
2018-09-18T05:21:25.099Z,100882.18
2018-09-18T05:23:54.210Z,100888.92
2018-09-18T05:26:23.299Z,100884.87
2018-09-18T05:28:52.367Z,100889.86
2018-09-18T05:31:21.511Z,100900.64
2018-09-18T05:33:50.666Z,100902.84
2018-09-18T05:36:19.880Z,100896.59
2018-09-18T05:38:48.980Z,100898.72
2018-09-18T05:41:18.100Z,100897.37
2018-09-18T05:43:47.394Z,100894.67
2018-09-18T05:46:16.460Z,100897.00
2018-09-18T05:48:45.592Z,100891.49
2018-09-18T05:51:14.660Z,100886.51
2018-09-18T05:53:43.760Z,100892.63
2018-09-18T05:56:12.878Z,100892.95
2018-09-18T05:58:41.954Z,100891.61
2018-09-18T06:01:11.021Z,100899.48
2018-09-18T06:03:40.190Z,100908.91
2018-09-18T06:06:09.336Z,100906.99
2018-09-18T06:08:38.405Z,100911.41
2018-09-18T06:11:07.658Z,100918.91
2018-09-18T06:13:36.728Z,100910.71
2018-09-18T06:16:05.784Z,100912.06
2018-09-18T06:18:35.017Z,100914.19
2018-09-18T06:21:04.265Z,100908.22
2018-09-18T06:23:33.330Z,100911.28
2018-09-18T06:26:02.407Z,100915.23
2018-09-18T06:28:31.738Z,100922.26
2018-09-18T06:31:00.732Z,100915.44
2018-09-18T06:33:29.767Z,100926.98
2018-09-18T06:35:58.851Z,100930.05
2018-09-18T06:38:28.040Z,100939.40
2018-09-18T06:40:57.118Z,100928.01
2018-09-18T06:43:26.212Z,100934.66
2018-09-18T06:45:55.308Z,100940.70
2018-09-18T06:48:24.345Z,100939.77
2018-09-18T06:50:53.500Z,100943.23
2018-09-18T06:53:22.596Z,100942.63
2018-09-18T06:55:51.639Z,100946.48
2018-09-18T06:58:20.774Z,100938.69
2018-09-18T07:00:49.865Z,100944.84
2018-09-18T07:03:18.971Z,100947.91
2018-09-18T07:05:48.027Z,100950.03
2018-09-18T07:08:17.378Z,100955.71
2018-09-18T07:10:46.473Z,100954.55
2018-09-18T07:13:15.670Z,100958.52
2018-09-18T07:15:45.871Z,100954.84
2018-09-18T07:18:14.982Z,100962.34
2018-09-18T07:20:44.093Z,100963.52
2018-09-18T07:23:13.374Z,100961.11
2018-09-18T07:25:42.444Z,100963.31
2018-09-18T07:28:11.932Z,100968.98
2018-09-18T07:30:41.008Z,100962.53
2018-09-18T07:33:10.152Z,100978.01
2018-09-18T07:35:39.244Z,100975.99
2018-09-18T07:38:08.423Z,100973.30
2018-09-18T07:40:37.466Z,100974.03
2018-09-18T07:43:06.498Z,100985.59
2018-09-18T07:45:35.761Z,100983.17
2018-09-18T07:48:05.065Z,100980.39
2018-09-18T07:50:34.168Z,100979.31
2018-09-18T07:53:03.240Z,100984.22
2018-09-18T07:55:32.300Z,100976.90
2018-09-18T07:58:01.445Z,100986.63
2018-09-18T08:00:30.956Z,100985.27
2018-09-18T08:03:00.052Z,100987.39
2018-09-18T08:05:29.347Z,100996.34
2018-09-18T08:07:58.444Z,100987.76
2018-09-18T08:10:27.523Z,100987.27
2018-09-18T08:12:56.615Z,100975.03
2018-09-18T08:15:25.732Z,100983.50
2018-09-18T08:17:54.827Z,100988.04
2018-09-18T08:20:23.915Z,100983.91
2018-09-18T08:22:52.907Z,100993.72
2018-09-18T08:25:22.345Z,100983.20
2018-09-18T08:27:51.658Z,100996.23
2018-09-18T08:30:20.799Z,101002.09
2018-09-18T08:32:49.882Z,101008.38
2018-09-18T08:35:19.216Z,101006.54
2018-09-18T08:37:48.309Z,101006.63
2018-09-18T08:40:17.411Z,101006.05
2018-09-18T08:42:46.480Z,101015.86
2018-09-18T08:45:15.703Z,101014.91
2018-09-18T08:47:44.830Z,101011.36
2018-09-18T08:50:14.070Z,101018.47
2018-09-18T08:52:43.220Z,101023.01
2018-09-18T08:55:12.474Z,101029.36
2018-09-18T08:57:41.776Z,101022.15
2018-09-18T09:00:11.115Z,101024.45
2018-09-18T09:02:40.360Z,101015.49
2018-09-18T09:05:09.616Z,101024.45
2018-09-18T09:07:39.043Z,101021.38
2018-09-18T09:10:08.260Z,101022.73
2018-09-18T09:12:37.499Z,101026.29
2018-09-18T09:15:06.876Z,101031.41
2018-09-18T09:17:36.223Z,101035.54
2018-09-18T09:20:05.720Z,101038.24
2018-09-18T09:22:35.010Z,101037.88
2018-09-18T09:25:04.169Z,101044.70
2018-09-18T09:27:33.207Z,101038.54
2018-09-18T09:30:02.572Z,101042.98
2018-09-18T09:32:31.904Z,101051.58
2018-09-18T09:35:01.004Z,101050.31
2018-09-18T09:37:30.289Z,101057.42
2018-09-18T09:39:59.397Z,101059.39
2018-09-18T09:42:28.380Z,101063.03
2018-09-18T09:44:57.505Z,101066.59
2018-09-18T09:47:26.790Z,101066.71
2018-09-18T09:49:55.883Z,101066.22
2018-09-18T09:52:24.955Z,101059.97
2018-09-18T09:54:54.033Z,101063.23
2018-09-18T09:57:23.105Z,101069.98
2018-09-18T09:59:52.258Z,101064.09
2018-09-18T10:02:26.893Z,101069.12
2018-09-18T10:04:56.177Z,101065.08
2018-09-18T10:07:25.287Z,101070.48
2018-09-18T10:09:54.371Z,101072.40
2018-09-18T10:12:23.480Z,101074.73
2018-09-18T10:14:52.555Z,101086.88
2018-09-18T10:17:21.662Z,101073.47
2018-09-18T10:19:50.751Z,101084.17
2018-09-18T10:22:19.843Z,101083.69
2018-09-18T10:24:48.959Z,101080.58
2018-09-18T10:27:18.059Z,101085.52
2018-09-18T10:29:47.160Z,101085.61
2018-09-18T10:32:16.534Z,101090.63
2018-09-18T10:34:45.870Z,101085.70
2018-09-18T10:37:15.054Z,101098.73
2018-09-18T10:39:44.148Z,101103.72
2018-09-18T10:42:13.309Z,101094.28
2018-09-18T10:44:42.635Z,101096.48
2018-09-18T10:47:11.918Z,101105.07
2018-09-18T10:49:41.251Z,101097.46
2018-09-18T10:52:10.247Z,101101.87
2018-09-18T10:54:39.652Z,101103.14
2018-09-18T10:57:08.717Z,101107.77
2018-09-18T10:59:37.803Z,101108.63
2018-09-18T11:02:07.392Z,101105.64
2018-09-18T11:04:36.593Z,101096.60
2018-09-18T11:07:06.151Z,101092.16
2018-09-18T11:09:35.484Z,101105.56
2018-09-18T11:12:04.751Z,101106.91
2018-09-18T11:14:33.898Z,101096.12
2018-09-18T11:17:03.160Z,101089.86
2018-09-18T11:19:32.224Z,101088.11
2018-09-18T11:22:01.570Z,101097.09
2018-09-18T11:24:30.843Z,101093.13
2018-09-18T11:26:59.939Z,101095.83
2018-09-18T11:29:29.072Z,101092.16
2018-09-18T11:31:58.243Z,101094.48
2018-09-18T11:34:27.639Z,101103.84
2018-09-18T11:36:56.823Z,101102.58
2018-09-18T11:39:25.939Z,101103.84
2018-09-18T11:41:55.025Z,101107.48
2018-09-18T11:44:24.263Z,101106.22
2018-09-18T11:46:53.532Z,101102.58
2018-09-18T11:49:22.931Z,101101.23
2018-09-18T11:51:52.164Z,101106.62
2018-09-18T11:54:21.293Z,101106.13
2018-09-18T11:56:50.528Z,101113.37
2018-09-18T11:59:19.731Z,101110.17
2018-09-18T12:01:49.151Z,101110.67
2018-09-18T12:04:18.583Z,101107.97
2018-09-18T12:06:47.730Z,101103.52
2018-09-18T12:09:16.868Z,101098.61
2018-09-18T12:11:46.108Z,101112.51
2018-09-18T12:14:15.231Z,101107.11
2018-09-18T12:16:44.303Z,101108.91
2018-09-18T12:19:13.575Z,101112.51
2018-09-18T12:21:42.926Z,101116.15
2018-09-18T12:24:12.117Z,101116.06
2018-09-18T12:26:41.227Z,101121.45
2018-09-18T12:29:10.285Z,101102.66
2018-09-18T12:31:39.391Z,101108.05
2018-09-18T12:34:08.497Z,101109.81
2018-09-18T12:36:37.591Z,101113.86
2018-09-18T12:39:08.339Z,101111.16
2018-09-18T12:41:37.982Z,101113.37
2018-09-18T12:44:07.301Z,101128.78
2018-09-18T12:46:36.479Z,101107.56
2018-09-18T12:49:05.858Z,101114.31
2018-09-18T12:51:35.088Z,101126.94
2018-09-18T12:54:04.403Z,101110.75
2018-09-18T12:56:33.629Z,101131.39
2018-09-18T12:59:02.701Z,101130.98
2018-09-18T13:01:31.803Z,101141.77
2018-09-18T13:04:00.920Z,101120.59
2018-09-18T13:06:30.414Z,101126.86
2018-09-18T13:08:59.541Z,101126.94
2018-09-18T13:11:28.735Z,101128.29
2018-09-18T13:13:57.868Z,101132.83
2018-09-18T13:16:27.261Z,101124.16
2018-09-18T13:18:56.552Z,101127.80
2018-09-18T13:21:25.627Z,101127.34
2018-09-18T13:23:54.720Z,101123.67
2018-09-18T13:26:23.818Z,101124.64
2018-09-18T13:28:52.993Z,101119.25
2018-09-18T13:31:22.072Z,101115.66
2018-09-18T13:33:51.477Z,101131.77
2018-09-18T13:36:20.768Z,101134.09
2018-09-18T13:38:51.116Z,101141.69
2018-09-18T13:41:20.322Z,101134.55
2018-09-18T13:43:49.499Z,101136.78
2018-09-18T13:46:18.666Z,101137.23
2018-09-18T13:48:47.908Z,101138.14
2018-09-18T13:51:17.164Z,101144.88
2018-09-18T13:53:46.304Z,101144.88
2018-09-18T13:56:15.483Z,101142.06
2018-09-18T13:58:44.726Z,101131.27
2018-09-18T14:01:13.808Z,101143.53
2018-09-18T14:03:43.044Z,101144.39
2018-09-18T14:06:12.116Z,101151.14
2018-09-18T14:08:41.192Z,101156.91
2018-09-18T14:11:10.293Z,101164.62
2018-09-18T14:13:39.512Z,101168.18
2018-09-18T14:16:09.098Z,101162.78
2018-09-18T14:18:38.190Z,101172.63
2018-09-18T14:21:07.589Z,101170.39
2018-09-18T14:23:36.656Z,101177.13
2018-09-18T14:26:05.786Z,101177.13
2018-09-18T14:28:37.065Z,101180.23
2018-09-18T14:31:06.431Z,101170.80
2018-09-18T14:33:35.744Z,101171.74
2018-09-18T14:36:04.926Z,101162.78
2018-09-18T14:38:34.046Z,101184.28
2018-09-18T14:41:03.149Z,101182.94
2018-09-18T14:43:32.219Z,101181.19
2018-09-18T14:46:01.264Z,101186.98
2018-09-18T14:48:30.430Z,101202.77
2018-09-18T14:50:59.552Z,101207.22
2018-09-18T14:53:28.773Z,101211.27
2018-09-18T14:55:57.913Z,101216.66
2018-09-18T14:58:26.980Z,101209.52
2018-09-18T15:00:56.104Z,101202.31
2018-09-18T15:03:25.203Z,101217.14
2018-09-18T15:05:54.307Z,101218.01
2018-09-18T15:08:23.406Z,101217.52
2018-09-18T15:10:52.482Z,101228.23
2018-09-18T15:13:21.576Z,101234.48
2018-09-18T15:15:50.855Z,101240.83
2018-09-18T15:18:20.308Z,101230.64
2018-09-18T15:20:49.409Z,101239.59
2018-09-18T15:23:18.500Z,101247.77
2018-09-18T15:25:47.643Z,101245.93
2018-09-18T15:28:16.792Z,101246.42
2018-09-18T15:30:45.882Z,101243.34
2018-09-18T15:33:14.940Z,101248.17
2018-09-18T15:35:44.052Z,101261.17
2018-09-18T15:38:13.134Z,101249.98
2018-09-18T15:40:42.370Z,101258.19
2018-09-18T15:43:11.493Z,101256.84
2018-09-18T15:45:40.882Z,101255.38
2018-09-18T15:48:10.145Z,101267.22
2018-09-18T15:50:39.210Z,101260.48
2018-09-18T15:53:08.347Z,101270.41
2018-09-18T15:55:37.427Z,101275.88
2018-09-18T15:58:06.554Z,101276.38
2018-09-18T16:00:35.648Z,101282.17
2018-09-18T16:03:04.888Z,101275.02
2018-09-18T16:05:34.045Z,101269.14
2018-09-18T16:08:03.210Z,101270.48
2018-09-18T16:10:32.339Z,101271.47
2018-09-18T16:13:01.411Z,101269.14
2018-09-18T16:15:30.560Z,101283.90
2018-09-18T16:17:59.804Z,101279.85
2018-09-18T16:20:28.893Z,101287.16
2018-09-18T16:22:58.115Z,101298.81
2018-09-18T16:25:27.284Z,101281.77
2018-09-18T16:27:56.520Z,101287.16
2018-09-18T16:30:25.596Z,101282.82
2018-09-18T16:32:54.695Z,101282.74
2018-09-18T16:35:23.788Z,101286.88
2018-09-18T16:37:52.882Z,101286.79
2018-09-18T16:40:22.068Z,101290.84
2018-09-18T16:42:51.271Z,101293.91
2018-09-18T16:45:20.381Z,101297.66
2018-09-18T16:47:49.742Z,101300.36
2018-09-18T16:50:18.830Z,101299.98
2018-09-18T16:52:47.934Z,101293.23
2018-09-18T16:55:17.019Z,101295.45
2018-09-18T16:57:46.254Z,101295.45
2018-09-18T17:00:15.381Z,101295.45
2018-09-18T17:02:44.456Z,101309.51
2018-09-18T17:05:13.541Z,101323.48
2018-09-18T17:07:42.775Z,101324.15
2018-09-18T17:10:11.846Z,101324.64
2018-09-18T17:12:41.010Z,101330.52
2018-09-18T17:15:10.368Z,101328.50
2018-09-18T17:17:39.448Z,101335.99
2018-09-18T17:20:08.693Z,101333.59
2018-09-18T17:22:37.907Z,101335.91
2018-09-18T17:25:07.160Z,101335.43
2018-09-18T17:27:36.355Z,101334.19
2018-09-18T17:30:05.417Z,101334.94
2018-09-18T17:32:34.501Z,101346.70
2018-09-18T17:35:03.848Z,101347.19
2018-09-18T17:37:32.912Z,101344.98
2018-09-18T17:40:02.068Z,101340.53
2018-09-18T17:42:31.322Z,101354.98
2018-09-18T17:45:00.417Z,101364.43
2018-09-18T17:47:29.546Z,101359.03
2018-09-18T17:49:58.820Z,101362.11
2018-09-18T17:52:28.140Z,101359.81
2018-09-18T17:54:57.324Z,101365.67
2018-09-18T17:57:26.380Z,101374.25
2018-09-18T17:59:55.508Z,101373.31
2018-09-18T18:02:24.615Z,101384.66
2018-09-18T18:04:53.709Z,101382.61
2018-09-18T18:07:22.786Z,101380.20
2018-09-18T18:09:52.043Z,101397.28
2018-09-18T18:12:21.187Z,101388.89
2018-09-18T18:14:50.260Z,101388.89
2018-09-18T18:17:19.410Z,101393.80
2018-09-18T18:19:48.676Z,101392.34
2018-09-18T18:22:18.188Z,101390.06
2018-09-18T18:24:47.309Z,101398.71
2018-09-18T18:27:16.374Z,101398.64
2018-09-18T18:29:45.462Z,101402.69
2018-09-18T18:32:14.527Z,101405.45
2018-09-18T18:34:43.634Z,101404.30
2018-09-18T18:37:12.759Z,101400.73
2018-09-18T18:39:41.836Z,101415.95
2018-09-18T18:42:10.978Z,101413.81
2018-09-18T18:44:40.045Z,101419.92
2018-09-18T18:47:09.165Z,101426.25
2018-09-18T18:49:39.186Z,101420.48
2018-09-18T18:52:08.238Z,101427.22
2018-09-18T18:54:37.420Z,101433.48
2018-09-18T18:57:06.835Z,101429.06
2018-09-18T18:59:35.972Z,101435.31
2018-09-18T19:02:05.255Z,101431.34
2018-09-18T19:04:34.356Z,101439.06
2018-09-18T19:07:03.500Z,101435.58
2018-09-18T19:09:32.741Z,101435.95
2018-09-18T19:12:01.889Z,101436.85
2018-09-18T19:14:31.118Z,101439.06
2018-09-18T19:17:00.270Z,101440.00
2018-09-18T19:19:29.586Z,101450.23
2018-09-18T19:21:58.675Z,101447.64
2018-09-18T19:24:27.906Z,101444.61
2018-09-18T19:26:57.104Z,101451.69
2018-09-18T19:29:26.369Z,101448.88
2018-09-18T19:31:55.759Z,101450.23
2018-09-18T19:34:24.927Z,101453.41
2018-09-18T19:36:54.257Z,101448.88
2018-09-18T19:39:23.644Z,101464.28
2018-09-18T19:41:52.857Z,101456.19
2018-09-18T19:44:21.961Z,101453.03
2018-09-18T19:46:51.131Z,101455.25
2018-09-18T19:49:20.285Z,101455.62
2018-09-18T19:51:49.402Z,101451.69
2018-09-18T19:54:18.719Z,101449.36
2018-09-18T19:56:47.817Z,101463.72
2018-09-18T19:59:16.938Z,101464.20
2018-09-18T20:01:46.271Z,101461.50
2018-09-18T20:04:15.553Z,101464.69
2018-09-18T20:06:44.627Z,101462.85
2018-09-18T20:09:13.765Z,101458.42
2018-09-18T20:11:43.143Z,101458.02
2018-09-18T20:14:12.428Z,101470.16
2018-09-18T20:16:41.565Z,101469.67
2018-09-18T20:19:11.044Z,101468.81
2018-09-18T20:21:40.141Z,101467.08
2018-09-18T20:24:09.238Z,101468.02
2018-09-18T20:26:38.405Z,101470.72
2018-09-18T20:29:07.873Z,101463.59
2018-09-18T20:31:37.053Z,101464.46
2018-09-18T20:34:06.430Z,101468.02
2018-09-18T20:36:35.577Z,101468.02
2018-09-18T20:39:06.488Z,101468.98
2018-09-18T20:41:35.705Z,101462.25
2018-09-18T20:44:05.195Z,101466.37
2018-09-18T20:49:26.618Z,101468.13
2018-09-18T20:51:55.736Z,101461.08
2018-09-18T20:54:25.592Z,101464.31
2018-09-18T20:56:54.912Z,101466.93
2018-09-18T20:59:24.021Z,101471.46
2018-09-18T21:01:53.208Z,101473.82
2018-09-18T21:04:22.826Z,101471.05
2018-09-18T21:06:52.023Z,101468.28
2018-09-18T21:09:21.213Z,101467.41
2018-09-18T21:11:50.429Z,101471.98
2018-09-18T21:14:19.527Z,101475.66
2018-09-18T21:16:48.686Z,101474.80
2018-09-18T21:19:17.818Z,101473.44
2018-09-18T21:21:47.020Z,101471.13
2018-09-18T21:24:16.948Z,101471.98
2018-09-18T21:26:46.038Z,101470.64
2018-09-18T21:29:16.114Z,101471.23
2018-09-18T21:31:45.240Z,101474.23
2018-09-18T21:34:14.555Z,101473.67
2018-09-18T21:36:43.710Z,101469.77
2018-09-18T21:39:12.807Z,101472.88
2018-09-18T21:41:41.900Z,101474.80
2018-09-18T21:44:11.023Z,101474.30
2018-09-18T21:46:40.220Z,101483.74
2018-09-18T21:49:09.305Z,101472.09
2018-09-18T21:51:38.387Z,101475.66
2018-09-18T21:54:07.521Z,101476.63
2018-09-18T21:56:36.678Z,101481.53
2018-09-18T21:59:05.770Z,101480.08
2018-09-18T22:01:34.864Z,101473.93
2018-09-18T22:04:03.942Z,101469.88
2018-09-18T22:06:33.174Z,101471.30
2018-09-18T22:09:02.396Z,101481.13
2018-09-18T22:11:31.473Z,101489.14
2018-09-18T22:14:00.599Z,101485.95
2018-09-18T22:16:29.666Z,101487.79
2018-09-18T22:18:58.766Z,101492.80
2018-09-18T22:21:27.868Z,101493.75
2018-09-18T22:23:56.943Z,101500.90
2018-09-18T22:26:26.051Z,101503.97
2018-09-18T22:28:55.544Z,101509.44
2018-09-18T22:31:24.646Z,101503.67
2018-09-18T22:33:53.814Z,101497.79
2018-09-18T22:36:22.880Z,101500.41
2018-09-18T22:38:51.962Z,101502.32
2018-09-18T22:41:21.266Z,101494.30
2018-09-18T22:43:50.448Z,101502.32
2018-09-18T22:46:19.617Z,101496.06
2018-09-18T22:48:48.703Z,101494.61
2018-09-18T22:51:17.984Z,101500.00
2018-09-18T22:53:47.140Z,101494.61
2018-09-18T22:56:17.340Z,101492.88
2018-09-18T22:58:46.456Z,101496.44
2018-09-18T23:01:15.518Z,101498.27
2018-09-18T23:03:44.781Z,101505.98
2018-09-18T23:06:14.112Z,101503.29
2018-09-18T23:08:43.527Z,101510.41
2018-09-18T23:11:12.636Z,101504.53
2018-09-18T23:13:41.745Z,101505.98
2018-09-18T23:16:10.841Z,101504.15
2018-09-18T23:18:39.953Z,101500.97
2018-09-18T23:21:09.218Z,101501.34
2018-09-18T23:23:38.420Z,101489.80
2018-09-18T23:26:07.510Z,101497.48
2018-09-18T23:28:36.606Z,101493.92
2018-09-18T23:31:05.720Z,101493.75
2018-09-18T23:33:34.782Z,101498.27
2018-09-18T23:36:03.952Z,101502.32
2018-09-18T23:38:33.299Z,101501.45
2018-09-18T23:41:02.358Z,101505.50
2018-09-18T23:43:31.523Z,101511.69
2018-09-18T23:46:00.580Z,101509.92
2018-09-18T23:48:29.816Z,101504.53
2018-09-18T23:50:59.097Z,101500.59
2018-09-18T23:53:28.187Z,101503.73
2018-09-18T23:55:57.267Z,101508.20
2018-09-18T23:58:26.544Z,101508.68
